sensor_id;sensor_type;location;lat;lon;timestamp;P1;durP1;ratioP1;P2;durP2;ratioP2
33696;SDS011;20031;43.416;23.232;2023-02-26T00:00:03;42.28;;;20.70;;
33696;SDS011;20031;43.416;23.232;2023-02-26T00:02:35;49.63;;;22.02;;
33696;SDS011;20031;43.416;23.232;2023-02-26T00:05:02;53.40;;;22.42;;
33696;SDS011;20031;43.416;23.232;2023-02-26T00:07:28;45.67;;;22.00;;
33696;SDS011;20031;43.416;23.232;2023-02-26T00:09:54;46.88;;;21.95;;
33696;SDS011;20031;43.416;23.232;2023-02-26T00:12:19;46.00;;;21.58;;
33696;SDS011;20031;43.416;23.232;2023-02-26T00:14:46;47.97;;;21.42;;
33696;SDS011;20031;43.416;23.232;2023-02-26T00:20:13;51.88;;;20.42;;
33696;SDS011;20031;43.416;23.232;2023-02-26T00:22:41;46.72;;;19.48;;
33696;SDS011;20031;43.416;23.232;2023-02-26T00:25:07;46.22;;;20.17;;
33696;SDS011;20031;43.416;23.232;2023-02-26T00:27:33;47.28;;;19.52;;
33696;SDS011;20031;43.416;23.232;2023-02-26T00:29:58;52.67;;;19.30;;
33696;SDS011;20031;43.416;23.232;2023-02-26T00:32:25;48.10;;;20.48;;
33696;SDS011;20031;43.416;23.232;2023-02-26T00:34:50;49.60;;;21.25;;
33696;SDS011;20031;43.416;23.232;2023-02-26T00:39:58;42.75;;;16.15;;
33696;SDS011;20031;43.416;23.232;2023-02-26T00:42:45;45.38;;;16.70;;
33696;SDS011;20031;43.416;23.232;2023-02-26T00:45:11;35.40;;;14.50;;
33696;SDS011;20031;43.416;23.232;2023-02-26T00:47:44;30.45;;;13.95;;
33696;SDS011;20031;43.416;23.232;2023-02-26T00:50:32;37.55;;;15.05;;
33696;SDS011;20031;43.416;23.232;2023-02-26T00:53:03;22.90;;;8.50;;
33696;SDS011;20031;43.416;23.232;2023-02-26T00:55:38;47.47;;;13.80;;
33696;SDS011;20031;43.416;23.232;2023-02-26T00:58:03;33.53;;;11.35;;
33696;SDS011;20031;43.416;23.232;2023-02-26T01:00:29;32.90;;;10.77;;
33696;SDS011;20031;43.416;23.232;2023-02-26T01:02:54;27.90;;;9.90;;
33696;SDS011;20031;43.416;23.232;2023-02-26T01:05:20;41.97;;;10.10;;
33696;SDS011;20031;43.416;23.232;2023-02-26T01:08:31;31.45;;;9.25;;
33696;SDS011;20031;43.416;23.232;2023-02-26T01:10:45;40.67;;;9.93;;
33696;SDS011;20031;43.416;23.232;2023-02-26T01:13:11;36.55;;;9.75;;
33696;SDS011;20031;43.416;23.232;2023-02-26T01:15:37;34.78;;;10.55;;
33696;SDS011;20031;43.416;23.232;2023-02-26T01:18:13;31.52;;;9.18;;
33696;SDS011;20031;43.416;23.232;2023-02-26T01:20:59;36.33;;;8.18;;
33696;SDS011;20031;43.416;23.232;2023-02-26T01:23:30;37.42;;;8.73;;
33696;SDS011;20031;43.416;23.232;2023-02-26T01:25:58;31.73;;;8.45;;
33696;SDS011;20031;43.416;23.232;2023-02-26T01:28:31;28.17;;;7.55;;
33696;SDS011;20031;43.416;23.232;2023-02-26T01:30:57;28.50;;;7.35;;
33696;SDS011;20031;43.416;23.232;2023-02-26T01:33:29;30.75;;;7.78;;
33696;SDS011;20031;43.416;23.232;2023-02-26T01:36:08;31.23;;;7.70;;
33696;SDS011;20031;43.416;23.232;2023-02-26T01:47:03;27.00;;;5.65;;
33696;SDS011;20031;43.416;23.232;2023-02-26T01:49:41;33.20;;;4.78;;
33696;SDS011;20031;43.416;23.232;2023-02-26T01:55:10;32.70;;;5.80;;
33696;SDS011;20031;43.416;23.232;2023-02-26T01:57:36;24.17;;;5.28;;
33696;SDS011;20031;43.416;23.232;2023-02-26T02:00:02;23.20;;;5.35;;
33696;SDS011;20031;43.416;23.232;2023-02-26T02:02:29;26.38;;;5.68;;
33696;SDS011;20031;43.416;23.232;2023-02-26T02:04:54;28.95;;;5.53;;
33696;SDS011;20031;43.416;23.232;2023-02-26T02:07:20;28.73;;;6.32;;
33696;SDS011;20031;43.416;23.232;2023-02-26T02:09:46;22.33;;;5.40;;
33696;SDS011;20031;43.416;23.232;2023-02-26T02:15:13;37.28;;;6.05;;
33696;SDS011;20031;43.416;23.232;2023-02-26T02:23:12;22.05;;;5.25;;
33696;SDS011;20031;43.416;23.232;2023-02-26T02:29:02;30.15;;;5.38;;
33696;SDS011;20031;43.416;23.232;2023-02-26T02:31:51;24.95;;;5.18;;
33696;SDS011;20031;43.416;23.232;2023-02-26T02:34:33;27.85;;;6.55;;
33696;SDS011;20031;43.416;23.232;2023-02-26T02:40:06;22.08;;;4.90;;
33696;SDS011;20031;43.416;23.232;2023-02-26T02:45:16;28.20;;;5.70;;
33696;SDS011;20031;43.416;23.232;2023-02-26T02:47:49;23.05;;;5.22;;
33696;SDS011;20031;43.416;23.232;2023-02-26T02:50:22;26.38;;;6.38;;
33696;SDS011;20031;43.416;23.232;2023-02-26T02:53:00;27.92;;;6.03;;
33696;SDS011;20031;43.416;23.232;2023-02-26T02:55:32;30.80;;;5.95;;
33696;SDS011;20031;43.416;23.232;2023-02-26T02:58:05;33.28;;;6.68;;
33696;SDS011;20031;43.416;23.232;2023-02-26T03:00:36;32.42;;;6.53;;
33696;SDS011;20031;43.416;23.232;2023-02-26T03:05:48;31.05;;;6.32;;
33696;SDS011;20031;43.416;23.232;2023-02-26T03:08:15;22.27;;;5.72;;
33696;SDS011;20031;43.416;23.232;2023-02-26T03:10:43;32.17;;;6.22;;
33696;SDS011;20031;43.416;23.232;2023-02-26T03:13:30;35.53;;;5.95;;
33696;SDS011;20031;43.416;23.232;2023-02-26T03:18:28;32.65;;;6.88;;
33696;SDS011;20031;43.416;23.232;2023-02-26T03:21:17;34.10;;;7.43;;
33696;SDS011;20031;43.416;23.232;2023-02-26T03:23:59;40.35;;;6.97;;
33696;SDS011;20031;43.416;23.232;2023-02-26T03:26:39;22.48;;;5.75;;
33696;SDS011;20031;43.416;23.232;2023-02-26T03:29:22;35.53;;;7.32;;
33696;SDS011;20031;43.416;23.232;2023-02-26T03:32:08;29.13;;;6.70;;
33696;SDS011;20031;43.416;23.232;2023-02-26T03:34:42;25.15;;;6.90;;
33696;SDS011;20031;43.416;23.232;2023-02-26T03:37:15;40.70;;;8.70;;
33696;SDS011;20031;43.416;23.232;2023-02-26T03:39:46;35.22;;;10.63;;
33696;SDS011;20031;43.416;23.232;2023-02-26T03:45:23;38.67;;;8.98;;
33696;SDS011;20031;43.416;23.232;2023-02-26T03:47:49;25.90;;;7.28;;
33696;SDS011;20031;43.416;23.232;2023-02-26T03:50:23;34.05;;;7.45;;
33696;SDS011;20031;43.416;23.232;2023-02-26T03:52:53;26.73;;;5.25;;
33696;SDS011;20031;43.416;23.232;2023-02-26T03:55:28;28.55;;;5.88;;
33696;SDS011;20031;43.416;23.232;2023-02-26T03:57:55;24.05;;;4.93;;
33696;SDS011;20031;43.416;23.232;2023-02-26T04:00:21;25.88;;;7.07;;
33696;SDS011;20031;43.416;23.232;2023-02-26T04:02:50;28.48;;;7.50;;
33696;SDS011;20031;43.416;23.232;2023-02-26T04:05:32;34.70;;;6.97;;
33696;SDS011;20031;43.416;23.232;2023-02-26T04:08:02;32.60;;;6.78;;
33696;SDS011;20031;43.416;23.232;2023-02-26T04:10:44;20.95;;;6.13;;
33696;SDS011;20031;43.416;23.232;2023-02-26T04:13:22;27.05;;;5.97;;
33696;SDS011;20031;43.416;23.232;2023-02-26T04:15:48;34.15;;;7.70;;
33696;SDS011;20031;43.416;23.232;2023-02-26T04:18:13;28.80;;;7.78;;
33696;SDS011;20031;43.416;23.232;2023-02-26T04:20:39;25.58;;;6.60;;
33696;SDS011;20031;43.416;23.232;2023-02-26T04:23:04;30.77;;;7.20;;
33696;SDS011;20031;43.416;23.232;2023-02-26T04:25:30;25.88;;;7.38;;
33696;SDS011;20031;43.416;23.232;2023-02-26T04:27:55;27.50;;;7.03;;
33696;SDS011;20031;43.416;23.232;2023-02-26T04:30:21;24.83;;;6.68;;
33696;SDS011;20031;43.416;23.232;2023-02-26T04:32:46;27.40;;;6.35;;
33696;SDS011;20031;43.416;23.232;2023-02-26T04:35:12;29.85;;;7.13;;
33696;SDS011;20031;43.416;23.232;2023-02-26T04:37:37;40.33;;;8.57;;
33696;SDS011;20031;43.416;23.232;2023-02-26T04:40:03;43.25;;;12.40;;
33696;SDS011;20031;43.416;23.232;2023-02-26T04:42:29;48.28;;;13.27;;
33696;SDS011;20031;43.416;23.232;2023-02-26T04:44:54;48.45;;;13.98;;
33696;SDS011;20031;43.416;23.232;2023-02-26T04:47:20;45.60;;;19.15;;
33696;SDS011;20031;43.416;23.232;2023-02-26T04:49:45;47.25;;;19.02;;
33696;SDS011;20031;43.416;23.232;2023-02-26T04:52:11;25.00;;;9.43;;
33696;SDS011;20031;43.416;23.232;2023-02-26T04:54:36;35.38;;;8.88;;
33696;SDS011;20031;43.416;23.232;2023-02-26T04:57:02;23.85;;;5.25;;
33696;SDS011;20031;43.416;23.232;2023-02-26T04:59:27;21.77;;;5.28;;
33696;SDS011;20031;43.416;23.232;2023-02-26T05:01:53;21.38;;;4.65;;
33696;SDS011;20031;43.416;23.232;2023-02-26T05:04:19;17.52;;;4.63;;
33696;SDS011;20031;43.416;23.232;2023-02-26T05:06:44;27.10;;;4.55;;
33696;SDS011;20031;43.416;23.232;2023-02-26T05:09:10;23.83;;;4.32;;
33696;SDS011;20031;43.416;23.232;2023-02-26T05:11:35;20.75;;;5.15;;
33696;SDS011;20031;43.416;23.232;2023-02-26T05:14:01;23.92;;;6.03;;
33696;SDS011;20031;43.416;23.232;2023-02-26T05:16:26;28.50;;;5.60;;
33696;SDS011;20031;43.416;23.232;2023-02-26T05:18:52;33.83;;;5.38;;
33696;SDS011;20031;43.416;23.232;2023-02-26T05:21:17;24.05;;;4.82;;
33696;SDS011;20031;43.416;23.232;2023-02-26T05:23:43;35.60;;;9.45;;
33696;SDS011;20031;43.416;23.232;2023-02-26T05:26:08;43.13;;;8.65;;
33696;SDS011;20031;43.416;23.232;2023-02-26T05:28:34;24.00;;;4.82;;
33696;SDS011;20031;43.416;23.232;2023-02-26T05:31:00;40.22;;;9.00;;
33696;SDS011;20031;43.416;23.232;2023-02-26T05:33:26;40.03;;;12.35;;
33696;SDS011;20031;43.416;23.232;2023-02-26T05:35:51;36.80;;;11.80;;
33696;SDS011;20031;43.416;23.232;2023-02-26T05:38:17;37.72;;;11.90;;
33696;SDS011;20031;43.416;23.232;2023-02-26T05:40:43;34.30;;;12.80;;
33696;SDS011;20031;43.416;23.232;2023-02-26T05:43:08;47.55;;;14.93;;
33696;SDS011;20031;43.416;23.232;2023-02-26T05:45:34;45.10;;;15.30;;
33696;SDS011;20031;43.416;23.232;2023-02-26T05:47:59;55.83;;;16.50;;
33696;SDS011;20031;43.416;23.232;2023-02-26T05:50:25;58.13;;;17.98;;
33696;SDS011;20031;43.416;23.232;2023-02-26T05:52:51;47.55;;;18.45;;
33696;SDS011;20031;43.416;23.232;2023-02-26T05:55:17;43.58;;;12.85;;
33696;SDS011;20031;43.416;23.232;2023-02-26T05:57:43;64.15;;;24.40;;
33696;SDS011;20031;43.416;23.232;2023-02-26T06:00:09;73.40;;;23.35;;
33696;SDS011;20031;43.416;23.232;2023-02-26T06:02:35;70.05;;;24.63;;
33696;SDS011;20031;43.416;23.232;2023-02-26T06:05:00;53.97;;;19.10;;
33696;SDS011;20031;43.416;23.232;2023-02-26T06:07:26;60.47;;;20.52;;
33696;SDS011;20031;43.416;23.232;2023-02-26T06:09:51;63.90;;;20.70;;
33696;SDS011;20031;43.416;23.232;2023-02-26T06:12:17;77.88;;;31.80;;
33696;SDS011;20031;43.416;23.232;2023-02-26T06:14:42;70.45;;;25.80;;
33696;SDS011;20031;43.416;23.232;2023-02-26T06:17:08;76.65;;;28.45;;
33696;SDS011;20031;43.416;23.232;2023-02-26T06:19:33;66.65;;;27.27;;
33696;SDS011;20031;43.416;23.232;2023-02-26T06:21:59;68.50;;;26.50;;
33696;SDS011;20031;43.416;23.232;2023-02-26T06:24:24;70.53;;;24.45;;
33696;SDS011;20031;43.416;23.232;2023-02-26T06:26:50;52.22;;;21.67;;
33696;SDS011;20031;43.416;23.232;2023-02-26T06:29:16;65.32;;;20.13;;
33696;SDS011;20031;43.416;23.232;2023-02-26T06:31:43;39.47;;;11.90;;
33696;SDS011;20031;43.416;23.232;2023-02-26T06:34:09;59.75;;;21.15;;
33696;SDS011;20031;43.416;23.232;2023-02-26T06:36:34;80.05;;;27.90;;
33696;SDS011;20031;43.416;23.232;2023-02-26T06:39:00;59.45;;;23.23;;
33696;SDS011;20031;43.416;23.232;2023-02-26T06:41:25;70.88;;;25.15;;
33696;SDS011;20031;43.416;23.232;2023-02-26T06:43:51;52.33;;;21.55;;
33696;SDS011;20031;43.416;23.232;2023-02-26T06:46:16;73.85;;;24.55;;
33696;SDS011;20031;43.416;23.232;2023-02-26T06:48:42;66.90;;;24.52;;
33696;SDS011;20031;43.416;23.232;2023-02-26T06:51:07;76.97;;;27.75;;
33696;SDS011;20031;43.416;23.232;2023-02-26T06:53:33;72.47;;;27.55;;
33696;SDS011;20031;43.416;23.232;2023-02-26T06:55:59;80.82;;;26.67;;
33696;SDS011;20031;43.416;23.232;2023-02-26T06:58:24;71.65;;;24.25;;
33696;SDS011;20031;43.416;23.232;2023-02-26T07:00:50;70.72;;;23.77;;
33696;SDS011;20031;43.416;23.232;2023-02-26T07:03:16;64.65;;;22.88;;
33696;SDS011;20031;43.416;23.232;2023-02-26T07:05:43;73.20;;;26.33;;
33696;SDS011;20031;43.416;23.232;2023-02-26T07:08:09;72.68;;;26.45;;
33696;SDS011;20031;43.416;23.232;2023-02-26T07:10:35;44.78;;;10.43;;
33696;SDS011;20031;43.416;23.232;2023-02-26T07:13:01;58.45;;;16.58;;
33696;SDS011;20031;43.416;23.232;2023-02-26T07:15:27;54.17;;;17.05;;
33696;SDS011;20031;43.416;23.232;2023-02-26T07:17:53;68.80;;;17.67;;
33696;SDS011;20031;43.416;23.232;2023-02-26T07:20:18;41.10;;;12.70;;
33696;SDS011;20031;43.416;23.232;2023-02-26T07:22:44;49.25;;;8.15;;
33696;SDS011;20031;43.416;23.232;2023-02-26T07:25:10;33.80;;;5.35;;
33696;SDS011;20031;43.416;23.232;2023-02-26T07:27:36;42.88;;;7.10;;
33696;SDS011;20031;43.416;23.232;2023-02-26T07:30:03;43.80;;;8.02;;
33696;SDS011;20031;43.416;23.232;2023-02-26T07:32:30;39.97;;;7.60;;
33696;SDS011;20031;43.416;23.232;2023-02-26T07:34:56;25.05;;;5.18;;
33696;SDS011;20031;43.416;23.232;2023-02-26T07:37:21;25.35;;;4.90;;
33696;SDS011;20031;43.416;23.232;2023-02-26T07:39:47;58.83;;;7.10;;
33696;SDS011;20031;43.416;23.232;2023-02-26T07:42:12;34.28;;;5.45;;
33696;SDS011;20031;43.416;23.232;2023-02-26T07:44:38;33.80;;;5.95;;
33696;SDS011;20031;43.416;23.232;2023-02-26T07:47:03;33.63;;;4.43;;
33696;SDS011;20031;43.416;23.232;2023-02-26T07:49:29;31.23;;;4.63;;
33696;SDS011;20031;43.416;23.232;2023-02-26T07:51:56;31.52;;;4.35;;
33696;SDS011;20031;43.416;23.232;2023-02-26T07:54:22;43.20;;;5.68;;
33696;SDS011;20031;43.416;23.232;2023-02-26T07:56:47;32.22;;;4.78;;
33696;SDS011;20031;43.416;23.232;2023-02-26T07:59:14;35.10;;;5.75;;
33696;SDS011;20031;43.416;23.232;2023-02-26T08:01:39;37.40;;;5.15;;
33696;SDS011;20031;43.416;23.232;2023-02-26T08:04:05;42.90;;;5.28;;
33696;SDS011;20031;43.416;23.232;2023-02-26T08:06:30;35.78;;;5.20;;
33696;SDS011;20031;43.416;23.232;2023-02-26T08:08:56;34.05;;;6.13;;
33696;SDS011;20031;43.416;23.232;2023-02-26T08:11:21;31.58;;;4.80;;
33696;SDS011;20031;43.416;23.232;2023-02-26T08:13:47;45.38;;;5.10;;
33696;SDS011;20031;43.416;23.232;2023-02-26T08:16:12;30.77;;;4.78;;
33696;SDS011;20031;43.416;23.232;2023-02-26T08:18:38;29.08;;;5.72;;
33696;SDS011;20031;43.416;23.232;2023-02-26T08:21:04;35.75;;;5.95;;
33696;SDS011;20031;43.416;23.232;2023-02-26T08:23:30;41.65;;;4.95;;
33696;SDS011;20031;43.416;23.232;2023-02-26T08:26:03;24.63;;;5.30;;
33696;SDS011;20031;43.416;23.232;2023-02-26T08:28:30;32.13;;;4.95;;
33696;SDS011;20031;43.416;23.232;2023-02-26T08:30:57;40.92;;;4.75;;
33696;SDS011;20031;43.416;23.232;2023-02-26T08:33:23;34.78;;;5.35;;
33696;SDS011;20031;43.416;23.232;2023-02-26T08:35:49;32.90;;;5.45;;
33696;SDS011;20031;43.416;23.232;2023-02-26T08:38:15;31.73;;;4.43;;
33696;SDS011;20031;43.416;23.232;2023-02-26T08:40:40;32.10;;;4.93;;
33696;SDS011;20031;43.416;23.232;2023-02-26T08:43:06;40.80;;;9.35;;
33696;SDS011;20031;43.416;23.232;2023-02-26T08:45:32;37.92;;;5.63;;
33696;SDS011;20031;43.416;23.232;2023-02-26T08:47:57;55.35;;;14.32;;
33696;SDS011;20031;43.416;23.232;2023-02-26T08:50:23;38.50;;;4.93;;
33696;SDS011;20031;43.416;23.232;2023-02-26T08:52:50;31.38;;;6.55;;
33696;SDS011;20031;43.416;23.232;2023-02-26T08:55:15;43.58;;;7.10;;
33696;SDS011;20031;43.416;23.232;2023-02-26T08:57:41;37.03;;;5.03;;
33696;SDS011;20031;43.416;23.232;2023-02-26T09:00:06;30.42;;;5.65;;
33696;SDS011;20031;43.416;23.232;2023-02-26T09:02:36;35.63;;;6.85;;
33696;SDS011;20031;43.416;23.232;2023-02-26T09:05:02;56.33;;;13.07;;
33696;SDS011;20031;43.416;23.232;2023-02-26T09:07:27;39.33;;;5.15;;
33696;SDS011;20031;43.416;23.232;2023-02-26T09:09:53;29.08;;;5.32;;
33696;SDS011;20031;43.416;23.232;2023-02-26T09:12:18;31.73;;;6.28;;
33696;SDS011;20031;43.416;23.232;2023-02-26T09:14:44;41.88;;;5.20;;
33696;SDS011;20031;43.416;23.232;2023-02-26T09:17:09;31.55;;;5.18;;
33696;SDS011;20031;43.416;23.232;2023-02-26T09:19:35;40.78;;;5.40;;
33696;SDS011;20031;43.416;23.232;2023-02-26T09:22:00;30.55;;;4.97;;
33696;SDS011;20031;43.416;23.232;2023-02-26T09:24:26;33.83;;;5.20;;
33696;SDS011;20031;43.416;23.232;2023-02-26T09:26:51;46.03;;;11.48;;
33696;SDS011;20031;43.416;23.232;2023-02-26T09:29:17;26.55;;;5.28;;
33696;SDS011;20031;43.416;23.232;2023-02-26T09:31:42;34.38;;;5.18;;
33696;SDS011;20031;43.416;23.232;2023-02-26T09:34:08;35.83;;;5.13;;
33696;SDS011;20031;43.416;23.232;2023-02-26T09:36:33;35.85;;;4.85;;
33696;SDS011;20031;43.416;23.232;2023-02-26T09:38:58;38.55;;;6.80;;
33696;SDS011;20031;43.416;23.232;2023-02-26T09:41:32;35.63;;;6.72;;
33696;SDS011;20031;43.416;23.232;2023-02-26T09:49:26;35.97;;;9.00;;
33696;SDS011;20031;43.416;23.232;2023-02-26T09:51:59;40.05;;;7.07;;
33696;SDS011;20031;43.416;23.232;2023-02-26T09:54:30;38.80;;;10.82;;
33696;SDS011;20031;43.416;23.232;2023-02-26T09:57:00;26.35;;;4.75;;
33696;SDS011;20031;43.416;23.232;2023-02-26T09:59:30;29.55;;;5.03;;
33696;SDS011;20031;43.416;23.232;2023-02-26T10:02:00;29.38;;;5.15;;
33696;SDS011;20031;43.416;23.232;2023-02-26T10:10:25;36.30;;;4.85;;
33696;SDS011;20031;43.416;23.232;2023-02-26T10:12:53;40.90;;;5.50;;
33696;SDS011;20031;43.416;23.232;2023-02-26T10:15:27;39.83;;;4.82;;
33696;SDS011;20031;43.416;23.232;2023-02-26T10:34:34;48.38;;;5.35;;
33696;SDS011;20031;43.416;23.232;2023-02-26T10:37:12;67.22;;;5.68;;
33696;SDS011;20031;43.416;23.232;2023-02-26T10:39:54;47.30;;;5.28;;
33696;SDS011;20031;43.416;23.232;2023-02-26T10:42:31;59.22;;;5.93;;
33696;SDS011;20031;43.416;23.232;2023-02-26T10:45:38;34.25;;;5.18;;
33696;SDS011;20031;43.416;23.232;2023-02-26T10:50:53;42.85;;;5.90;;
33696;SDS011;20031;43.416;23.232;2023-02-26T10:53:22;33.35;;;4.75;;
33696;SDS011;20031;43.416;23.232;2023-02-26T10:55:51;34.53;;;5.00;;
33696;SDS011;20031;43.416;23.232;2023-02-26T10:58:24;29.08;;;5.05;;
33696;SDS011;20031;43.416;23.232;2023-02-26T11:00:52;47.03;;;5.32;;
33696;SDS011;20031;43.416;23.232;2023-02-26T11:03:20;28.10;;;5.35;;
33696;SDS011;20031;43.416;23.232;2023-02-26T11:06:03;32.58;;;5.45;;
33696;SDS011;20031;43.416;23.232;2023-02-26T11:08:41;32.13;;;5.05;;
33696;SDS011;20031;43.416;23.232;2023-02-26T11:11:09;42.50;;;6.53;;
33696;SDS011;20031;43.416;23.232;2023-02-26T11:13:35;34.35;;;5.40;;
33696;SDS011;20031;43.416;23.232;2023-02-26T11:16:12;40.20;;;5.47;;
33696;SDS011;20031;43.416;23.232;2023-02-26T11:18:41;36.75;;;7.72;;
33696;SDS011;20031;43.416;23.232;2023-02-26T11:21:15;60.13;;;14.82;;
33696;SDS011;20031;43.416;23.232;2023-02-26T11:23:43;46.45;;;12.77;;
33696;SDS011;20031;43.416;23.232;2023-02-26T11:26:17;42.58;;;17.55;;
33696;SDS011;20031;43.416;23.232;2023-02-26T11:28:45;47.97;;;19.02;;
33696;SDS011;20031;43.416;23.232;2023-02-26T11:31:14;44.08;;;19.20;;
33696;SDS011;20031;43.416;23.232;2023-02-26T11:33:49;43.53;;;19.95;;
33696;SDS011;20031;43.416;23.232;2023-02-26T11:36:18;48.17;;;20.63;;
33696;SDS011;20031;43.416;23.232;2023-02-26T11:38:56;47.25;;;23.42;;
33696;SDS011;20031;43.416;23.232;2023-02-26T11:41:25;56.97;;;23.08;;
33696;SDS011;20031;43.416;23.232;2023-02-26T11:43:58;57.85;;;21.98;;
33696;SDS011;20031;43.416;23.232;2023-02-26T11:46:26;48.17;;;21.45;;
33696;SDS011;20031;43.416;23.232;2023-02-26T11:48:53;46.97;;;22.77;;
33696;SDS011;20031;43.416;23.232;2023-02-26T11:51:23;59.10;;;27.67;;
33696;SDS011;20031;43.416;23.232;2023-02-26T11:53:52;78.40;;;28.33;;
33696;SDS011;20031;43.416;23.232;2023-02-26T11:56:22;50.90;;;25.70;;
33696;SDS011;20031;43.416;23.232;2023-02-26T11:58:54;51.35;;;25.38;;
33696;SDS011;20031;43.416;23.232;2023-02-26T12:01:26;51.15;;;23.45;;
33696;SDS011;20031;43.416;23.232;2023-02-26T12:03:54;55.22;;;25.90;;
33696;SDS011;20031;43.416;23.232;2023-02-26T12:06:23;52.10;;;24.70;;
33696;SDS011;20031;43.416;23.232;2023-02-26T12:08:49;48.63;;;25.98;;
33696;SDS011;20031;43.416;23.232;2023-02-26T12:22:50;57.83;;;26.63;;
33696;SDS011;20031;43.416;23.232;2023-02-26T12:26:15;47.75;;;26.85;;
33696;SDS011;20031;43.416;23.232;2023-02-26T12:31:51;52.42;;;27.55;;
33696;SDS011;20031;43.416;23.232;2023-02-26T12:40:13;53.28;;;28.88;;
33696;SDS011;20031;43.416;23.232;2023-02-26T12:59:27;53.55;;;27.52;;
33696;SDS011;20031;43.416;23.232;2023-02-26T13:05:18;47.67;;;25.48;;
33696;SDS011;20031;43.416;23.232;2023-02-26T13:08:28;53.15;;;26.55;;
33696;SDS011;20031;43.416;23.232;2023-02-26T13:10:56;49.70;;;25.55;;
33696;SDS011;20031;43.416;23.232;2023-02-26T13:18:48;47.13;;;25.23;;
33696;SDS011;20031;43.416;23.232;2023-02-26T13:21:25;49.50;;;26.23;;
33696;SDS011;20031;43.416;23.232;2023-02-26T13:24:06;41.80;;;23.23;;
33696;SDS011;20031;43.416;23.232;2023-02-26T13:26:36;44.42;;;21.48;;
33696;SDS011;20031;43.416;23.232;2023-02-26T13:29:46;44.28;;;21.60;;
33696;SDS011;20031;43.416;23.232;2023-02-26T13:34:56;42.00;;;22.42;;
33696;SDS011;20031;43.416;23.232;2023-02-26T13:37:30;41.47;;;20.38;;
33696;SDS011;20031;43.416;23.232;2023-02-26T13:45:51;37.80;;;18.42;;
33696;SDS011;20031;43.416;23.232;2023-02-26T13:48:24;41.97;;;20.88;;
33696;SDS011;20031;43.416;23.232;2023-02-26T13:51:07;37.45;;;18.35;;
33696;SDS011;20031;43.416;23.232;2023-02-26T13:53:45;36.55;;;20.17;;
33696;SDS011;20031;43.416;23.232;2023-02-26T13:59:02;32.88;;;17.67;;
33696;SDS011;20031;43.416;23.232;2023-02-26T14:04:25;33.67;;;18.08;;
33696;SDS011;20031;43.416;23.232;2023-02-26T14:07:10;32.65;;;17.48;;
33696;SDS011;20031;43.416;23.232;2023-02-26T14:22:40;37.40;;;17.75;;
33696;SDS011;20031;43.416;23.232;2023-02-26T14:27:37;38.83;;;19.05;;
33696;SDS011;20031;43.416;23.232;2023-02-26T14:32:49;31.73;;;16.85;;
33696;SDS011;20031;43.416;23.232;2023-02-26T14:35:23;31.85;;;16.48;;
33696;SDS011;20031;43.416;23.232;2023-02-26T14:38:01;32.30;;;16.30;;
33696;SDS011;20031;43.416;23.232;2023-02-26T14:40:34;31.48;;;15.43;;
33696;SDS011;20031;43.416;23.232;2023-02-26T14:43:04;27.70;;;14.65;;
33696;SDS011;20031;43.416;23.232;2023-02-26T14:45:38;29.90;;;15.40;;
33696;SDS011;20031;43.416;23.232;2023-02-26T14:48:07;31.27;;;14.50;;
33696;SDS011;20031;43.416;23.232;2023-02-26T14:53:41;30.10;;;14.25;;
33696;SDS011;20031;43.416;23.232;2023-02-26T14:59:18;35.60;;;13.73;;
33696;SDS011;20031;43.416;23.232;2023-02-26T15:01:47;25.67;;;13.40;;
33696;SDS011;20031;43.416;23.232;2023-02-26T15:19:27;23.30;;;12.18;;
33696;SDS011;20031;43.416;23.232;2023-02-26T15:24:13;21.80;;;10.88;;
33696;SDS011;20031;43.416;23.232;2023-02-26T15:26:48;22.23;;;11.80;;
33696;SDS011;20031;43.416;23.232;2023-02-26T15:29:17;21.48;;;11.00;;
33696;SDS011;20031;43.416;23.232;2023-02-26T15:31:57;25.45;;;11.90;;
33696;SDS011;20031;43.416;23.232;2023-02-26T15:34:27;25.67;;;11.93;;
33696;SDS011;20031;43.416;23.232;2023-02-26T15:36:55;24.90;;;11.23;;
33696;SDS011;20031;43.416;23.232;2023-02-26T15:39:22;23.70;;;11.27;;
33696;SDS011;20031;43.416;23.232;2023-02-26T15:41:49;26.75;;;11.57;;
33696;SDS011;20031;43.416;23.232;2023-02-26T15:44:24;18.35;;;10.32;;
33696;SDS011;20031;43.416;23.232;2023-02-26T15:46:54;28.00;;;11.02;;
33696;SDS011;20031;43.416;23.232;2023-02-26T15:49:26;32.83;;;10.85;;
33696;SDS011;20031;43.416;23.232;2023-02-26T15:51:54;25.65;;;11.25;;
33696;SDS011;20031;43.416;23.232;2023-02-26T15:54:22;22.35;;;10.02;;
33696;SDS011;20031;43.416;23.232;2023-02-26T15:56:52;24.95;;;10.43;;
33696;SDS011;20031;43.416;23.232;2023-02-26T15:59:19;30.10;;;10.35;;
33696;SDS011;20031;43.416;23.232;2023-02-26T16:01:49;30.83;;;10.43;;
33696;SDS011;20031;43.416;23.232;2023-02-26T16:04:16;24.92;;;10.35;;
33696;SDS011;20031;43.416;23.232;2023-02-26T16:06:53;20.00;;;9.98;;
33696;SDS011;20031;43.416;23.232;2023-02-26T16:11:52;23.25;;;10.57;;
33696;SDS011;20031;43.416;23.232;2023-02-26T16:14:21;20.67;;;11.15;;
33696;SDS011;20031;43.416;23.232;2023-02-26T16:16:54;24.20;;;10.07;;
33696;SDS011;20031;43.416;23.232;2023-02-26T16:19:25;25.50;;;10.35;;
33696;SDS011;20031;43.416;23.232;2023-02-26T16:25:23;19.63;;;10.05;;
33696;SDS011;20031;43.416;23.232;2023-02-26T16:28:03;22.95;;;9.55;;
33696;SDS011;20031;43.416;23.232;2023-02-26T16:30:35;22.05;;;9.45;;
33696;SDS011;20031;43.416;23.232;2023-02-26T16:33:03;17.42;;;9.50;;
33696;SDS011;20031;43.416;23.232;2023-02-26T16:35:37;28.23;;;9.43;;
33696;SDS011;20031;43.416;23.232;2023-02-26T16:38:16;17.30;;;9.10;;
33696;SDS011;20031;43.416;23.232;2023-02-26T16:40:46;24.23;;;9.30;;
33696;SDS011;20031;43.416;23.232;2023-02-26T16:45:53;18.58;;;9.18;;
33696;SDS011;20031;43.416;23.232;2023-02-26T16:48:21;20.33;;;9.05;;
33696;SDS011;20031;43.416;23.232;2023-02-26T16:51:01;19.60;;;8.18;;
33696;SDS011;20031;43.416;23.232;2023-02-26T16:53:32;18.73;;;8.68;;
33696;SDS011;20031;43.416;23.232;2023-02-26T16:56:01;22.30;;;8.43;;
33696;SDS011;20031;43.416;23.232;2023-02-26T16:58:28;25.30;;;8.80;;
33696;SDS011;20031;43.416;23.232;2023-02-26T17:01:05;20.38;;;9.38;;
33696;SDS011;20031;43.416;23.232;2023-02-26T17:03:36;23.83;;;8.40;;
33696;SDS011;20031;43.416;23.232;2023-02-26T17:06:07;20.20;;;8.93;;
33696;SDS011;20031;43.416;23.232;2023-02-26T17:11:37;15.15;;;8.57;;
33696;SDS011;20031;43.416;23.232;2023-02-26T17:14:16;22.98;;;9.27;;
33696;SDS011;20031;43.416;23.232;2023-02-26T17:16:47;16.35;;;8.68;;
33696;SDS011;20031;43.416;23.232;2023-02-26T17:19:14;21.35;;;9.60;;
33696;SDS011;20031;43.416;23.232;2023-02-26T17:21:42;20.50;;;9.05;;
33696;SDS011;20031;43.416;23.232;2023-02-26T17:24:20;21.50;;;9.90;;
33696;SDS011;20031;43.416;23.232;2023-02-26T17:27:10;28.60;;;10.70;;
33696;SDS011;20031;43.416;23.232;2023-02-26T17:29:47;22.75;;;10.70;;
33696;SDS011;20031;43.416;23.232;2023-02-26T17:32:22;28.38;;;9.85;;
33696;SDS011;20031;43.416;23.232;2023-02-26T17:34:50;23.23;;;9.77;;
33696;SDS011;20031;43.416;23.232;2023-02-26T17:37:16;20.95;;;10.43;;